Time,TemperatureF,DewpointF,PressureIn,WindDirection,WindDirectionDegrees,WindSpeedMPH,WindSpeedGustMPH,Humidity,HourlyPrecipIn,Conditions,Clouds,dailyrainin,SolarRadiationWatts/m^2,SoftwareType,DateUTC
2013-04-02 00:02:00,47.8,45.0,30.09,ENE,66,4.0,6.0,90,0.00,,,0.00,0.0,meteohub,2013-04-02 10:02:00,
2013-04-02 00:07:00,48.2,45.1,30.09,ENE,73,2.0,7.0,89,0.00,,,0.00,0.0,meteohub,2013-04-02 10:07:00,
2013-04-02 00:10:00,48.6,45.1,30.09,ENE,76,3.0,7.0,88,0.00,,,0.00,0.0,meteohub,2013-04-02 10:10:00,
2013-04-02 00:17:00,48.6,44.8,30.09,East,80,3.0,7.0,87,0.00,,,0.00,0.0,meteohub,2013-04-02 10:17:00,
2013-04-02 00:22:00,48.4,45.0,30.09,ENE,62,3.0,7.0,88,0.00,,,0.00,0.0,meteohub,2013-04-02 10:22:00,
2013-04-02 00:27:00,48.0,44.6,30.09,East,84,3.0,6.0,88,0.00,,,0.00,0.0,meteohub,2013-04-02 10:27:00,
2013-04-02 00:30:00,48.0,44.6,30.09,ENE,75,3.0,6.0,88,0.00,,,0.00,0.0,meteohub,2013-04-02 10:30:00,
2013-04-02 00:37:00,48.0,44.6,30.09,ENE,74,3.0,7.0,88,0.00,,,0.00,0.0,meteohub,2013-04-02 10:37:00,
2013-04-02 00:45:00,47.7,44.2,30.09,ENE,78,4.0,7.0,88,0.00,,,0.00,0.0,meteohub,2013-04-02 10:45:00,
2013-04-02 00:50:00,47.8,44.4,30.09,ENE,69,4.0,6.0,88,0.00,,,0.00,0.0,meteohub,2013-04-02 10:50:00,
2013-04-02 00:57:00,48.0,44.6,30.08,East,85,3.0,7.0,88,0.00,,,0.00,0.0,meteohub,2013-04-02 10:57:00,
2013-04-02 01:03:00,48.2,44.6,30.08,ESE,119,3.0,7.0,87,0.00,,,0.00,0.0,meteohub,2013-04-02 11:03:00,
2013-04-02 01:08:00,48.4,44.8,30.08,ENE,62,1.0,7.0,87,0.00,,,0.00,0.0,meteohub,2013-04-02 11:08:00,
2013-04-02 01:13:00,47.7,44.1,30.09,East,86,1.0,7.0,87,0.00,,,0.00,0.0,meteohub,2013-04-02 11:13:00,
2013-04-02 01:22:00,46.9,43.9,30.09,East,85,1.0,4.0,89,0.00,,,0.00,0.0,meteohub,2013-04-02 11:22:00,
2013-04-02 01:27:00,46.8,43.7,30.08,ENE,67,1.0,3.0,89,0.00,,,0.00,0.0,meteohub,2013-04-02 11:27:00,
2013-04-02 01:32:00,46.2,43.5,30.08,East,79,3.0,3.0,90,0.00,,,0.00,0.0,meteohub,2013-04-02 11:32:00,
2013-04-02 01:37:00,46.6,43.9,30.08,ENE,75,1.0,5.0,90,0.00,,,0.00,0.0,meteohub,2013-04-02 11:37:00,
2013-04-02 01:47:00,47.1,44.6,30.09,East,94,1.0,5.0,91,0.00,,,0.00,0.0,meteohub,2013-04-02 11:47:00,
2013-04-02 01:52:00,47.1,44.4,30.09,ESE,108,1.0,5.0,90,0.00,,,0.00,0.0,meteohub,2013-04-02 11:52:00,
2013-04-02 01:57:00,46.8,44.1,30.09,ESE,111,2.0,5.0,90,0.00,,,0.00,0.0,meteohub,2013-04-02 11:57:00,
2013-04-02 01:58:00,46.8,44.1,30.09,ESE,119,2.0,5.0,90,0.00,,,0.00,0.0,meteohub,2013-04-02 11:58:00,
2013-04-02 02:07:00,45.9,43.3,30.09,ESE,108,1.0,4.0,91,0.00,,,0.00,0.0,meteohub,2013-04-02 12:07:00,
2013-04-02 02:12:00,45.5,43.0,30.08,ESE,113,2.0,4.0,91,0.00,,,0.00,0.0,meteohub,2013-04-02 12:12:00,
2013-04-02 02:17:00,45.1,43.0,30.08,SE,125,0.0,5.0,92,0.00,,,0.00,0.0,meteohub,2013-04-02 12:17:00,
2013-04-02 02:20:00,45.1,43.0,30.08,ESE,123,0.0,5.0,92,0.00,,,0.00,0.0,meteohub,2013-04-02 12:20:00,
2013-04-02 02:22:00,45.0,42.8,30.08,SE,125,1.0,5.0,92,0.00,,,0.00,0.0,meteohub,2013-04-02 12:22:00,
2013-04-02 02:32:00,45.3,43.2,30.08,ESE,105,2.0,7.0,92,0.00,,,0.00,0.0,meteohub,2013-04-02 12:32:00,
2013-04-02 02:37:00,45.9,43.7,30.08,ESE,123,3.0,7.0,92,0.00,,,0.00,0.0,meteohub,2013-04-02 12:37:00,
2013-04-02 02:42:00,46.0,43.9,30.08,ESE,115,1.0,5.0,92,0.00,,,0.00,0.0,meteohub,2013-04-02 12:42:00,
2013-04-02 02:47:00,46.0,43.5,30.07,ESE,112,3.0,5.0,91,0.00,,,0.00,0.0,meteohub,2013-04-02 12:47:00,
2013-04-02 02:52:00,46.0,43.5,30.07,ESE,111,4.0,6.0,91,0.00,,,0.00,0.0,meteohub,2013-04-02 12:52:00,
2013-04-02 02:57:00,46.2,44.1,30.07,SE,128,3.0,6.0,92,0.00,,,0.00,0.0,meteohub,2013-04-02 12:57:00,
2013-04-02 03:02:00,46.2,43.7,30.07,ESE,109,3.0,6.0,91,0.00,,,0.00,0.0,meteohub,2013-04-02 13:02:00,
2013-04-02 03:12:00,46.2,43.7,30.07,SE,127,0.0,4.0,91,0.00,,,0.00,0.0,meteohub,2013-04-02 13:12:00,
2013-04-02 03:17:00,46.0,43.5,30.07,ENE,78,0.0,4.0,91,0.00,,,0.00,0.0,meteohub,2013-04-02 13:17:00,
2013-04-02 03:22:00,46.0,43.5,30.07,ESE,105,1.0,4.0,91,0.00,,,0.00,0.0,meteohub,2013-04-02 13:22:00,
2013-04-02 03:27:00,45.9,43.3,30.07,East,82,1.0,4.0,91,0.00,,,0.00,0.0,meteohub,2013-04-02 13:27:00,
2013-04-02 03:33:00,45.9,43.3,30.07,East,82,1.0,4.0,91,0.00,,,0.00,0.0,meteohub,2013-04-02 13:33:00,
2013-04-02 03:34:00,45.0,42.8,30.07,East,90,1.0,4.0,92,0.00,,,0.00,0.0,meteohub,2013-04-02 13:34:00,
2013-04-02 03:47:00,44.4,42.4,30.06,East,86,3.0,6.0,93,0.00,,,0.00,0.0,meteohub,2013-04-02 13:47:00,
2013-04-02 03:50:00,44.4,42.4,30.06,East,99,0.0,6.0,93,0.00,,,0.00,0.0,meteohub,2013-04-02 13:50:00,
2013-04-02 03:52:00,44.4,42.4,30.06,East,89,1.0,6.0,93,0.00,,,0.00,0.0,meteohub,2013-04-02 13:52:00,
2013-04-02 03:57:00,44.2,42.3,30.07,East,83,2.0,6.0,93,0.00,,,0.00,0.0,meteohub,2013-04-02 13:57:00,
2013-04-02 04:02:00,44.2,42.3,30.07,East,81,1.0,6.0,93,0.00,,,0.00,0.0,meteohub,2013-04-02 14:02:00,
2013-04-02 04:07:00,43.9,41.9,30.08,East,93,0.0,5.0,93,0.00,,,0.00,0.0,meteohub,2013-04-02 14:07:00,
2013-04-02 04:08:00,43.9,41.9,30.08,ENE,75,0.0,5.0,93,0.00,,,0.00,0.0,meteohub,2013-04-02 14:08:00,
2013-04-02 04:12:00,43.7,42.1,30.07,ESE,120,3.0,3.0,94,0.00,,,0.00,0.0,meteohub,2013-04-02 14:12:00,
2013-04-02 04:22:00,43.9,42.3,30.07,ESE,113,2.0,4.0,94,0.00,,,0.00,0.0,meteohub,2013-04-02 14:22:00,
2013-04-02 04:27:00,44.1,42.4,30.07,ESE,105,2.0,5.0,94,0.00,,,0.00,0.0,meteohub,2013-04-02 14:27:00,
2013-04-02 04:32:00,43.9,42.3,30.08,ESE,106,2.0,5.0,94,0.00,,,0.00,0.0,meteohub,2013-04-02 14:32:00,
2013-04-02 04:35:00,44.1,42.4,30.08,East,93,5.0,5.0,94,0.00,,,0.00,0.0,meteohub,2013-04-02 14:35:00,
2013-04-02 04:37:00,44.2,43.0,30.08,ESE,107,1.0,5.0,95,0.00,,,0.00,0.0,meteohub,2013-04-02 14:37:00,
2013-04-02 04:42:00,44.4,43.2,30.08,ESE,113,1.0,5.0,95,0.00,,,0.00,0.0,meteohub,2013-04-02 14:42:00,
2013-04-02 04:47:00,45.0,43.9,30.08,SSE,159,1.0,5.0,96,0.00,,,0.00,0.0,meteohub,2013-04-02 14:47:00,
2013-04-02 04:51:00,45.1,43.9,30.08,ESE,106,2.0,5.0,95,0.00,,,0.00,0.0,meteohub,2013-04-02 14:51:00,
2013-04-02 04:57:00,45.3,44.1,30.08,ESE,113,1.0,4.0,95,0.00,,,0.00,0.0,meteohub,2013-04-02 14:57:00,
2013-04-02 05:02:00,45.3,43.7,30.09,ESE,105,1.0,4.0,94,0.00,,,0.00,0.0,meteohub,2013-04-02 15:02:00,
2013-04-02 05:07:00,45.1,43.5,30.09,ESE,110,2.0,3.0,94,0.00,,,0.00,0.0,meteohub,2013-04-02 15:07:00,
2013-04-02 05:12:00,45.0,43.3,30.09,ESE,105,2.0,3.0,94,0.00,,,0.00,0.0,meteohub,2013-04-02 15:12:00,
2013-04-02 05:17:00,44.8,43.2,30.09,SE,127,2.0,3.0,94,0.00,,,0.00,0.0,meteohub,2013-04-02 15:17:00,
2013-04-02 05:18:00,45.0,43.3,30.09,ESE,120,1.0,3.0,94,0.00,,,0.00,0.0,meteohub,2013-04-02 15:18:00,
2013-04-02 05:27:00,45.7,44.4,30.08,ESE,115,3.0,4.0,95,0.00,,,0.00,0.0,meteohub,2013-04-02 15:27:00,
2013-04-02 05:33:00,45.9,44.2,30.08,ESE,117,1.0,4.0,94,0.00,,,0.00,0.0,meteohub,2013-04-02 15:33:00,
2013-04-02 05:38:00,46.2,44.2,30.08,ESE,116,1.0,4.0,93,0.00,,,0.00,0.0,meteohub,2013-04-02 15:38:00,
2013-04-02 05:43:00,46.2,44.1,30.09,ESE,107,2.0,3.0,92,0.00,,,0.00,0.0,meteohub,2013-04-02 15:43:00,
2013-04-02 05:44:00,46.2,44.1,30.08,ESE,109,1.0,3.0,92,0.00,,,0.00,0.0,meteohub,2013-04-02 15:44:00,
2013-04-02 05:52:00,45.5,43.3,30.09,East,98,1.0,3.0,92,0.00,,,0.00,0.0,meteohub,2013-04-02 15:52:00,
2013-04-02 05:59:00,44.8,42.6,30.09,East,88,1.0,3.0,92,0.00,,,0.00,0.0,meteohub,2013-04-02 15:59:00,
2013-04-02 06:03:00,44.4,42.3,30.09,ESE,105,2.0,3.0,92,0.00,,,0.00,0.0,meteohub,2013-04-02 16:03:00,
2013-04-02 06:07:00,44.4,42.3,30.09,ESE,109,1.0,3.0,92,0.00,,,0.00,0.0,meteohub,2013-04-02 16:07:00,
2013-04-02 06:12:00,44.2,42.3,30.09,East,94,0.0,3.0,93,0.00,,,0.00,0.0,meteohub,2013-04-02 16:12:00,
2013-04-02 06:18:00,43.7,41.7,30.09,ESE,116,0.0,3.0,93,0.00,,,0.00,0.0,meteohub,2013-04-02 16:18:00,
2013-04-02 06:26:00,43.5,41.7,30.09,ESE,115,1.0,3.0,93,0.00,,,0.00,5.0,meteohub,2013-04-02 16:26:00,
2013-04-02 06:28:00,43.9,42.3,30.09,ESE,117,0.0,3.0,94,0.00,,,0.00,9.0,meteohub,2013-04-02 16:28:00,
2013-04-02 06:32:00,44.1,42.4,30.09,ESE,119,0.0,3.0,94,0.00,,,0.00,11.0,meteohub,2013-04-02 16:32:00,
2013-04-02 06:37:00,43.9,41.9,30.09,East,87,3.0,4.0,93,0.00,,,0.00,12.0,meteohub,2013-04-02 16:37:00,
2013-04-02 06:42:00,43.5,41.7,30.09,East,98,0.0,4.0,93,0.00,,,0.00,14.0,meteohub,2013-04-02 16:42:00,
2013-04-02 06:47:00,43.5,41.9,30.10,ESE,107,1.0,3.0,94,0.00,,,0.00,16.0,meteohub,2013-04-02 16:47:00,
2013-04-02 06:57:00,44.1,42.4,30.10,East,100,0.0,3.0,94,0.00,,,0.00,19.0,meteohub,2013-04-02 16:57:00,
2013-04-02 07:02:00,44.2,42.6,30.10,ESE,105,1.0,3.0,94,0.00,,,0.00,21.0,meteohub,2013-04-02 17:02:00,
2013-04-02 07:07:00,44.8,43.2,30.10,East,96,3.0,4.0,94,0.00,,,0.00,23.0,meteohub,2013-04-02 17:07:00,
2013-04-02 07:12:00,45.0,43.3,30.10,ESE,111,3.0,4.0,94,0.00,,,0.00,25.0,meteohub,2013-04-02 17:12:00,
2013-04-02 07:17:00,45.3,43.7,30.10,ESE,109,2.0,4.0,94,0.00,,,0.00,26.0,meteohub,2013-04-02 17:17:00,
2013-04-02 07:22:00,45.9,43.9,30.10,ESE,114,2.0,4.0,93,0.00,,,0.00,28.0,meteohub,2013-04-02 17:22:00,
2013-04-02 07:25:00,45.9,43.7,30.11,East,84,3.0,4.0,92,0.00,,,0.00,28.0,meteohub,2013-04-02 17:25:00,
2013-04-02 07:32:00,46.0,43.9,30.11,East,91,1.0,4.0,92,0.00,,,0.00,30.0,meteohub,2013-04-02 17:32:00,
2013-04-02 07:40:00,46.2,44.1,30.12,East,89,1.0,3.0,92,0.00,,,0.00,32.0,meteohub,2013-04-02 17:40:00,
2013-04-02 07:45:00,46.0,43.9,30.11,East,86,2.0,3.0,92,0.00,,,0.00,33.0,meteohub,2013-04-02 17:45:00,
2013-04-02 07:50:00,46.2,44.2,30.11,East,100,0.0,3.0,93,0.00,,,0.00,35.0,meteohub,2013-04-02 17:50:00,
2013-04-02 07:52:00,46.6,44.6,30.12,East,100,1.0,3.0,93,0.00,,,0.00,35.0,meteohub,2013-04-02 17:52:00,
2013-04-02 08:05:00,48.9,46.4,30.12,East,96,0.0,2.0,91,0.00,,,0.00,39.0,meteohub,2013-04-02 18:05:00,
2013-04-02 08:08:00,49.6,47.1,30.12,East,97,0.0,2.0,91,0.00,,,0.00,40.0,meteohub,2013-04-02 18:08:00,
2013-04-02 08:12:00,50.2,47.3,30.12,East,91,0.0,2.0,90,0.00,,,0.00,40.0,meteohub,2013-04-02 18:12:00,
2013-04-02 08:23:00,53.1,50.2,30.12,NW,321,4.0,5.0,90,0.00,,,0.00,44.0,meteohub,2013-04-02 18:23:00,
2013-04-02 08:28:00,53.8,50.4,30.12,West,267,0.0,7.0,88,0.00,,,0.00,44.0,meteohub,2013-04-02 18:28:00,
2013-04-02 08:30:00,54.1,50.4,30.12,NW,313,4.0,7.0,87,0.00,,,0.00,46.0,meteohub,2013-04-02 18:30:00,
2013-04-02 08:37:00,55.0,50.9,30.12,NW,305,3.0,8.0,86,0.00,,,0.00,47.0,meteohub,2013-04-02 18:37:00,
2013-04-02 08:46:00,55.6,52.3,30.13,WNW,289,1.0,7.0,89,0.00,,,0.00,60.0,meteohub,2013-04-02 18:46:00,
2013-04-02 08:51:00,55.8,52.5,30.13,NW,323,0.0,7.0,89,0.00,,,0.00,97.0,meteohub,2013-04-02 18:51:00,
2013-04-02 08:57:00,55.9,53.1,30.13,North,0,2.0,7.0,90,0.00,,,0.00,178.0,meteohub,2013-04-02 18:57:00,
2013-04-02 09:00:00,55.9,52.7,30.12,North,9,1.0,6.0,89,0.00,,,0.00,165.0,meteohub,2013-04-02 19:00:00,
2013-04-02 09:07:00,55.9,52.7,30.13,North,0,1.0,6.0,89,0.00,,,0.00,195.0,meteohub,2013-04-02 19:07:00,
2013-04-02 09:12:00,56.5,53.2,30.13,SW,225,0.0,6.0,89,0.00,,,0.00,163.0,meteohub,2013-04-02 19:12:00,
2013-04-02 09:17:00,56.7,53.1,30.13,NW,318,4.0,7.0,88,0.00,,,0.00,127.0,meteohub,2013-04-02 19:17:00,
2013-04-02 09:22:00,56.7,53.1,30.12,WNW,284,2.0,7.0,88,0.00,,,0.00,146.0,meteohub,2013-04-02 19:22:00,
2013-04-02 09:32:00,57.6,53.4,30.13,NW,319,7.0,7.0,86,0.00,,,0.00,348.0,meteohub,2013-04-02 19:32:00,
2013-04-02 09:37:00,57.7,53.6,30.13,WNW,300,0.0,8.0,86,0.00,,,0.00,346.0,meteohub,2013-04-02 19:37:00,
2013-04-02 09:38:00,57.7,54.0,30.13,WNW,290,3.0,8.0,87,0.00,,,0.00,346.0,meteohub,2013-04-02 19:38:00,
2013-04-02 09:42:00,57.9,53.4,30.13,NW,312,2.0,8.0,85,0.00,,,0.00,570.0,meteohub,2013-04-02 19:42:00,
2013-04-02 09:47:00,58.6,54.1,30.13,NW,311,5.0,8.0,85,0.00,,,0.00,664.0,meteohub,2013-04-02 19:47:00,
2013-04-02 09:53:00,59.2,53.6,30.13,West,268,4.0,7.0,82,0.00,,,0.00,745.0,meteohub,2013-04-02 19:53:00,
2013-04-02 09:57:00,59.4,53.6,30.13,WNW,300,2.0,8.0,81,0.00,,,0.00,264.0,meteohub,2013-04-02 19:57:00,
2013-04-02 10:02:00,59.2,53.6,30.13,West,277,3.0,8.0,82,0.00,,,0.00,148.0,meteohub,2013-04-02 20:02:00,
2013-04-02 10:07:00,58.6,52.5,30.13,WNW,299,0.0,7.0,80,0.00,,,0.00,322.0,meteohub,2013-04-02 20:07:00,
2013-04-02 10:13:00,58.6,53.2,30.13,WSW,241,3.0,8.0,82,0.00,,,0.00,413.0,meteohub,2013-04-02 20:13:00,
2013-04-02 10:18:00,58.8,53.4,30.13,West,277,4.0,8.0,82,0.00,,,0.00,353.0,meteohub,2013-04-02 20:18:00,
2013-04-02 10:19:00,58.8,53.1,30.13,NW,315,3.0,8.0,81,0.00,,,0.00,338.0,meteohub,2013-04-02 20:19:00,
2013-04-02 10:27:00,58.8,53.4,30.13,WSW,251,3.0,6.0,82,0.00,,,0.00,318.0,meteohub,2013-04-02 20:27:00,
2013-04-02 10:32:00,58.6,53.8,30.13,WNW,290,6.0,6.0,84,0.00,,,0.00,396.0,meteohub,2013-04-02 20:32:00,
2013-04-02 10:37:00,58.5,53.2,30.14,West,276,1.0,7.0,83,0.00,,,0.00,287.0,meteohub,2013-04-02 20:37:00,
2013-04-02 10:42:00,57.9,53.1,30.14,North,0,0.0,7.0,84,0.00,,,0.00,276.0,meteohub,2013-04-02 20:42:00,
2013-04-02 10:52:00,57.9,53.1,30.14,NNW,333,0.0,7.0,84,0.00,,,0.00,374.0,meteohub,2013-04-02 20:52:00,
2013-04-02 10:57:00,58.1,53.2,30.14,WSW,252,0.0,7.0,84,0.00,,,0.00,292.0,meteohub,2013-04-02 20:57:00,
2013-04-02 11:02:00,58.3,53.1,30.14,NW,323,2.0,6.0,83,0.00,,,0.00,350.0,meteohub,2013-04-02 21:02:00,
2013-04-02 11:12:00,58.3,53.4,30.14,NW,313,2.0,7.0,84,0.00,,,0.00,323.0,meteohub,2013-04-02 21:12:00,
2013-04-02 11:17:00,58.3,52.9,30.14,NW,318,3.0,8.0,82,0.00,,,0.00,295.0,meteohub,2013-04-02 21:17:00,
2013-04-02 11:22:00,58.3,53.4,30.13,West,272,1.0,8.0,84,0.00,,,0.00,322.0,meteohub,2013-04-02 21:22:00,
2013-04-02 11:27:00,58.5,53.6,30.13,NW,307,3.0,8.0,84,0.00,,,0.00,313.0,meteohub,2013-04-02 21:27:00,
2013-04-02 11:30:00,58.5,53.6,30.13,WSW,257,2.0,5.0,84,0.00,,,0.00,318.0,meteohub,2013-04-02 21:30:00,
2013-04-02 11:37:00,58.3,53.4,30.13,NW,313,3.0,7.0,84,0.00,,,0.00,325.0,meteohub,2013-04-02 21:37:00,
2013-04-02 11:42:00,58.3,53.8,30.13,West,273,4.0,9.0,85,0.00,,,0.00,404.0,meteohub,2013-04-02 21:42:00,
2013-04-02 11:47:00,58.5,54.0,30.13,WNW,295,1.0,9.0,85,0.00,,,0.00,457.0,meteohub,2013-04-02 21:47:00,
2013-04-02 11:49:00,58.6,54.1,30.12,NW,325,6.0,9.0,85,0.00,,,0.00,529.0,meteohub,2013-04-02 21:49:00,
2013-04-02 12:02:00,59.5,54.3,30.12,West,273,2.0,7.0,83,0.00,,,0.00,396.0,meteohub,2013-04-02 22:02:00,
2013-04-02 12:07:00,59.5,54.3,30.12,WNW,296,1.0,8.0,83,0.00,,,0.00,308.0,meteohub,2013-04-02 22:07:00,
2013-04-02 12:15:00,59.5,54.3,30.13,WNW,286,3.0,8.0,83,0.00,,,0.00,301.0,meteohub,2013-04-02 22:15:00,
2013-04-02 12:16:00,59.4,54.1,30.13,NW,311,1.0,9.0,83,0.00,,,0.00,346.0,meteohub,2013-04-02 22:16:00,
2013-04-02 12:22:00,59.5,54.3,30.12,NW,319,0.0,9.0,83,0.00,,,0.00,301.0,meteohub,2013-04-02 22:22:00,
2013-04-02 12:27:00,59.4,53.8,30.12,WNW,285,4.0,7.0,82,0.00,,,0.00,320.0,meteohub,2013-04-02 22:27:00,
2013-04-02 12:32:00,58.8,54.0,30.12,WNW,294,2.0,7.0,84,0.00,,,0.00,450.0,meteohub,2013-04-02 22:32:00,
2013-04-02 12:35:00,58.8,54.0,30.12,West,271,0.0,8.0,84,0.00,,,0.00,501.0,meteohub,2013-04-02 22:35:00,
2013-04-02 12:42:00,59.2,54.0,30.11,NW,313,2.0,8.0,83,0.00,,,0.00,461.0,meteohub,2013-04-02 22:42:00,
2013-04-02 12:50:00,59.5,54.7,30.11,WSW,245,2.0,8.0,84,0.00,,,0.00,487.0,meteohub,2013-04-02 22:50:00,
2013-04-02 12:52:00,59.5,54.3,30.11,NNW,333,1.0,8.0,83,0.00,,,0.00,459.0,meteohub,2013-04-02 22:52:00,
2013-04-02 12:55:00,59.4,54.5,30.11,NNW,338,2.0,12.0,84,0.00,,,0.00,346.0,meteohub,2013-04-02 22:55:00,
2013-04-02 13:07:00,59.5,54.3,30.10,WNW,296,3.0,12.0,83,0.00,,,0.00,355.0,meteohub,2013-04-02 23:07:00,
2013-04-02 13:12:00,59.4,54.5,30.10,NW,305,2.0,8.0,84,0.00,,,0.00,315.0,meteohub,2013-04-02 23:12:00,
2013-04-02 13:20:00,59.5,55.0,30.10,NW,318,0.0,8.0,85,0.00,,,0.00,308.0,meteohub,2013-04-02 23:20:00,
2013-04-02 13:25:00,58.6,54.1,30.10,WNW,295,3.0,10.0,85,0.00,,,0.00,244.0,meteohub,2013-04-02 23:25:00,
2013-04-02 13:30:00,58.5,54.3,30.09,West,270,1.0,10.0,86,0.00,,,0.00,302.0,meteohub,2013-04-02 23:30:00,
2013-04-02 13:35:00,58.5,54.0,30.09,NNW,327,2.0,7.0,85,0.00,,,0.00,294.0,meteohub,2013-04-02 23:35:00,
2013-04-02 13:42:00,58.6,54.1,30.09,WNW,290,2.0,6.0,85,0.00,,,0.00,287.0,meteohub,2013-04-02 23:42:00,
2013-04-02 13:51:00,58.5,54.0,30.09,NW,304,6.0,7.0,85,0.00,,,0.00,287.0,meteohub,2013-04-02 23:51:00,
2013-04-02 13:56:00,58.3,53.8,30.09,West,268,3.0,7.0,85,0.00,,,0.00,288.0,meteohub,2013-04-02 23:56:00,
2013-04-02 14:03:00,58.3,53.8,30.09,SW,219,2.0,7.0,85,0.00,,,0.00,264.0,meteohub,2013-04-03 00:03:00,
2013-04-02 14:08:00,58.3,54.1,30.08,North,351,4.0,7.0,86,0.00,,,0.00,320.0,meteohub,2013-04-03 00:08:00,
2013-04-02 14:13:00,58.3,53.8,30.08,WNW,302,2.0,9.0,85,0.00,,,0.00,352.0,meteohub,2013-04-03 00:13:00,
2013-04-02 14:18:00,58.8,54.3,30.08,WSW,246,1.0,9.0,85,0.00,,,0.00,336.0,meteohub,2013-04-03 00:18:00,
2013-04-02 14:21:00,59.0,54.5,30.08,WSW,250,4.0,9.0,85,0.00,,,0.00,239.0,meteohub,2013-04-03 00:21:00,
2013-04-02 14:27:00,58.8,54.0,30.08,North,5,4.0,10.0,84,0.00,,,0.00,364.0,meteohub,2013-04-03 00:27:00,
2013-04-02 14:32:00,58.8,54.3,30.07,West,269,2.0,10.0,85,0.00,,,0.00,364.0,meteohub,2013-04-03 00:32:00,
2013-04-02 14:37:00,59.4,54.9,30.08,NW,321,4.0,10.0,85,0.00,,,0.00,533.0,meteohub,2013-04-03 00:37:00,
2013-04-02 14:41:00,59.7,54.5,30.07,WNW,284,2.0,9.0,83,0.00,,,0.00,313.0,meteohub,2013-04-03 00:41:00,
2013-04-02 14:42:00,59.7,54.5,30.07,WNW,300,3.0,9.0,83,0.00,,,0.00,309.0,meteohub,2013-04-03 00:42:00,
2013-04-02 14:47:00,59.4,54.1,30.07,WNW,292,2.0,7.0,83,0.00,,,0.00,306.0,meteohub,2013-04-03 00:47:00,
2013-04-02 14:52:00,59.5,54.3,30.07,West,263,2.0,7.0,83,0.00,,,0.00,316.0,meteohub,2013-04-03 00:52:00,
2013-04-02 14:56:00,59.5,54.3,30.07,NNW,337,2.0,9.0,83,0.00,,,0.00,241.0,meteohub,2013-04-03 00:56:00,
2013-04-02 15:02:00,59.2,54.0,30.07,NW,313,2.0,9.0,83,0.00,,,0.00,285.0,meteohub,2013-04-03 01:02:00,
2013-04-02 15:03:00,59.2,54.3,30.07,NW,319,4.0,9.0,84,0.00,,,0.00,272.0,meteohub,2013-04-03 01:03:00,
2013-04-02 15:12:00,58.8,53.6,30.07,WNW,302,1.0,8.0,83,0.00,,,0.00,304.0,meteohub,2013-04-03 01:12:00,
2013-04-02 15:18:00,59.0,54.1,30.07,NNW,332,0.0,7.0,84,0.00,,,0.00,338.0,meteohub,2013-04-03 01:18:00,
2013-04-02 15:23:00,59.2,54.0,30.07,WNW,296,5.0,8.0,83,0.00,,,0.00,362.0,meteohub,2013-04-03 01:23:00,
2013-04-02 15:25:00,59.2,54.0,30.07,WNW,290,5.0,10.0,83,0.00,,,0.00,380.0,meteohub,2013-04-03 01:25:00,
2013-04-02 15:37:00,59.2,53.4,30.07,WNW,303,1.0,10.0,81,0.00,,,0.00,338.0,meteohub,2013-04-03 01:37:00,
2013-04-02 15:42:00,59.4,53.8,30.06,WNW,292,1.0,8.0,82,0.00,,,0.00,415.0,meteohub,2013-04-03 01:42:00,
2013-04-02 15:47:00,59.7,54.0,30.07,WNW,298,3.0,7.0,81,0.00,,,0.00,359.0,meteohub,2013-04-03 01:47:00,
2013-04-02 15:52:00,59.7,54.1,30.07,NW,308,4.0,6.0,82,0.00,,,0.00,554.0,meteohub,2013-04-03 01:52:00,
2013-04-02 15:57:00,59.9,54.1,30.07,WNW,291,6.0,8.0,81,0.00,,,0.00,283.0,meteohub,2013-04-03 01:57:00,
2013-04-02 16:02:00,59.7,54.1,30.07,WSW,244,5.0,8.0,82,0.00,,,0.00,334.0,meteohub,2013-04-03 02:02:00,
2013-04-02 16:07:00,59.5,54.0,30.07,North,355,4.0,8.0,82,0.00,,,0.00,413.0,meteohub,2013-04-03 02:07:00,
2013-04-02 16:10:00,59.7,54.1,30.07,West,275,1.0,8.0,82,0.00,,,0.00,304.0,meteohub,2013-04-03 02:10:00,
2013-04-02 16:17:00,59.5,54.0,30.07,NW,315,0.0,9.0,82,0.00,,,0.00,234.0,meteohub,2013-04-03 02:17:00,
2013-04-02 16:22:00,59.4,53.8,30.07,NW,317,6.0,9.0,82,0.00,,,0.00,257.0,meteohub,2013-04-03 02:22:00,
2013-04-02 16:27:00,59.2,53.6,30.07,West,259,0.0,9.0,82,0.00,,,0.00,251.0,meteohub,2013-04-03 02:27:00,
2013-04-02 16:32:00,59.2,54.0,30.07,WNW,284,2.0,8.0,83,0.00,,,0.00,237.0,meteohub,2013-04-03 02:32:00,
2013-04-02 16:37:00,59.0,53.8,30.08,West,275,2.0,10.0,83,0.00,,,0.00,221.0,meteohub,2013-04-03 02:37:00,
2013-04-02 16:47:00,58.6,53.4,30.08,NW,320,2.0,10.0,83,0.00,,,0.00,225.0,meteohub,2013-04-03 02:47:00,
2013-04-02 16:52:00,58.6,53.4,30.08,WNW,300,1.0,8.0,83,0.00,,,0.00,218.0,meteohub,2013-04-03 02:52:00,
2013-04-02 17:01:00,58.6,53.4,30.08,SSW,213,3.0,8.0,83,0.00,,,0.00,179.0,meteohub,2013-04-03 03:01:00,
2013-04-02 17:17:00,58.1,53.2,30.09,WNW,302,2.0,8.0,84,0.00,,,0.00,181.0,meteohub,2013-04-03 03:17:00,
2013-04-02 17:32:00,58.3,53.4,30.09,NW,307,3.0,8.0,84,0.00,,,0.00,172.0,meteohub,2013-04-03 03:32:00,
2013-04-02 17:37:00,57.9,53.1,30.09,West,271,1.0,7.0,84,0.00,,,0.00,156.0,meteohub,2013-04-03 03:37:00,
2013-04-02 17:42:00,57.7,53.2,30.09,West,278,2.0,7.0,85,0.00,,,0.00,172.0,meteohub,2013-04-03 03:42:00,
2013-04-02 17:47:00,57.7,53.2,30.09,NW,313,0.0,7.0,85,0.00,,,0.00,260.0,meteohub,2013-04-03 03:47:00,
2013-04-02 17:52:00,58.3,53.4,30.09,SW,236,0.0,8.0,84,0.00,,,0.00,244.0,meteohub,2013-04-03 03:52:00,
2013-04-02 17:57:00,58.5,53.2,30.09,West,272,0.0,8.0,83,0.00,,,0.00,172.0,meteohub,2013-04-03 03:57:00,
2013-04-02 18:02:00,58.6,53.4,30.09,West,273,3.0,8.0,83,0.00,,,0.00,160.0,meteohub,2013-04-03 04:02:00,
2013-04-02 18:04:00,58.6,53.2,30.09,WNW,294,1.0,8.0,82,0.00,,,0.00,137.0,meteohub,2013-04-03 04:04:00,
2013-04-02 18:05:00,58.6,53.2,30.09,WNW,294,0.0,8.0,82,0.00,,,0.00,137.0,meteohub,2013-04-03 04:05:00,
2013-04-02 18:12:00,58.6,52.9,30.09,West,280,1.0,7.0,81,0.00,,,0.00,104.0,meteohub,2013-04-03 04:12:00,
2013-04-02 18:17:00,58.6,52.5,30.09,WNW,282,1.0,7.0,80,0.00,,,0.00,81.0,meteohub,2013-04-03 04:17:00,
2013-04-02 18:22:00,58.6,52.2,30.10,WNW,282,0.0,5.0,79,0.00,,,0.00,62.0,meteohub,2013-04-03 04:22:00,
2013-04-02 18:27:00,58.3,52.2,30.10,NW,306,0.0,4.0,80,0.00,,,0.00,39.0,meteohub,2013-04-03 04:27:00,
2013-04-02 18:28:00,58.1,52.0,30.10,NW,307,0.0,4.0,80,0.00,,,0.00,32.0,meteohub,2013-04-03 04:28:00,
2013-04-02 18:42:00,56.8,51.1,30.10,NW,306,0.0,1.0,81,0.00,,,0.00,0.0,meteohub,2013-04-03 04:42:00,
2013-04-02 18:44:00,56.5,51.1,30.10,NW,306,0.0,1.0,82,0.00,,,0.00,0.0,meteohub,2013-04-03 04:44:00,
2013-04-02 18:47:00,55.9,50.9,30.10,NW,306,0.0,0.0,83,0.00,,,0.00,0.0,meteohub,2013-04-03 04:47:00,
2013-04-02 18:57:00,54.1,50.4,30.10,East,86,1.0,2.0,87,0.00,,,0.00,0.0,meteohub,2013-04-03 04:57:00,
2013-04-02 19:02:00,53.2,49.8,30.10,ESE,102,0.0,2.0,88,0.00,,,0.00,0.0,meteohub,2013-04-03 05:02:00,
2013-04-02 19:04:00,53.1,49.6,30.10,East,101,0.0,2.0,88,0.00,,,0.00,0.0,meteohub,2013-04-03 05:04:00,
2013-04-02 19:12:00,52.2,49.3,30.10,East,101,0.0,2.0,90,0.00,,,0.00,0.0,meteohub,2013-04-03 05:12:00,
2013-04-02 19:19:00,51.4,48.9,30.10,ESE,104,1.0,2.0,91,0.00,,,0.00,0.0,meteohub,2013-04-03 05:19:00,
2013-04-02 19:24:00,51.1,48.6,30.11,ESE,115,4.0,4.0,91,0.00,,,0.00,0.0,meteohub,2013-04-03 05:24:00,
2013-04-02 19:25:00,51.1,48.6,30.11,ESE,115,1.0,2.0,91,0.00,,,0.00,0.0,meteohub,2013-04-03 05:25:00,
2013-04-02 19:32:00,50.9,48.4,30.11,ESE,113,0.0,4.0,91,0.00,,,0.00,0.0,meteohub,2013-04-03 05:32:00,
2013-04-02 19:37:00,50.7,47.8,30.11,East,96,0.0,4.0,90,0.00,,,0.00,0.0,meteohub,2013-04-03 05:37:00,
2013-04-02 19:42:00,50.5,47.5,30.12,East,88,2.0,3.0,89,0.00,,,0.00,0.0,meteohub,2013-04-03 05:42:00,
2013-04-02 19:47:00,49.8,46.4,30.11,East,85,1.0,3.0,88,0.00,,,0.00,0.0,meteohub,2013-04-03 05:47:00,
2013-04-02 19:49:00,49.8,46.4,30.11,East,85,1.0,3.0,88,0.00,,,0.00,0.0,meteohub,2013-04-03 05:49:00,
2013-04-02 19:57:00,49.3,45.9,30.12,ENE,76,1.0,3.0,88,0.00,,,0.00,0.0,meteohub,2013-04-03 05:57:00,
2013-04-02 20:02:00,49.1,45.3,30.12,East,79,3.0,3.0,87,0.00,,,0.00,0.0,meteohub,2013-04-03 06:02:00,
2013-04-02 20:07:00,48.9,45.1,30.12,East,89,0.0,3.0,87,0.00,,,0.00,0.0,meteohub,2013-04-03 06:07:00,
2013-04-02 20:09:00,48.9,45.1,30.12,East,85,2.0,3.0,87,0.00,,,0.00,0.0,meteohub,2013-04-03 06:09:00,
2013-04-02 20:17:00,48.7,44.8,30.12,East,95,2.0,5.0,86,0.00,,,0.00,0.0,meteohub,2013-04-03 06:17:00,
2013-04-02 20:22:00,48.6,44.6,30.12,ENE,67,3.0,5.0,86,0.00,,,0.00,0.0,meteohub,2013-04-03 06:22:00,
2013-04-02 20:27:00,48.6,44.2,30.12,East,87,2.0,6.0,85,0.00,,,0.00,0.0,meteohub,2013-04-03 06:27:00,
2013-04-02 20:31:00,48.7,43.9,30.13,ENE,78,4.0,6.0,83,0.00,,,0.00,0.0,meteohub,2013-04-03 06:31:00,
2013-04-02 20:32:00,48.7,43.9,30.13,ENE,75,5.0,6.0,83,0.00,,,0.00,0.0,meteohub,2013-04-03 06:32:00,
2013-04-02 20:42:00,48.7,43.9,30.13,ESE,110,3.0,6.0,83,0.00,,,0.00,0.0,meteohub,2013-04-03 06:42:00,
2013-04-02 20:47:00,48.6,43.0,30.14,ENE,76,3.0,6.0,81,0.00,,,0.00,0.0,meteohub,2013-04-03 06:47:00,
2013-04-02 20:52:00,48.4,42.8,30.14,ENE,74,4.0,6.0,81,0.00,,,0.00,0.0,meteohub,2013-04-03 06:52:00,
2013-04-02 20:54:00,48.4,42.4,30.14,ENE,75,5.0,6.0,80,0.00,,,0.00,0.0,meteohub,2013-04-03 06:54:00,
2013-04-02 20:57:00,48.4,42.3,30.14,ENE,75,3.0,7.0,79,0.00,,,0.00,0.0,meteohub,2013-04-03 06:57:00,
2013-04-02 21:02:00,48.4,42.3,30.14,East,80,3.0,7.0,79,0.00,,,0.00,0.0,meteohub,2013-04-03 07:02:00,
2013-04-02 21:07:00,48.2,42.3,30.14,East,87,1.0,7.0,80,0.00,,,0.00,0.0,meteohub,2013-04-03 07:07:00,
2013-04-02 21:12:00,48.0,42.4,30.14,ENE,78,4.0,6.0,81,0.00,,,0.00,0.0,meteohub,2013-04-03 07:12:00,
2013-04-02 21:17:00,47.8,41.9,30.15,ENE,69,3.0,6.0,80,0.00,,,0.00,0.0,meteohub,2013-04-03 07:17:00,
2013-04-02 21:32:00,46.8,42.4,30.16,ENE,76,2.0,5.0,85,0.00,,,0.00,0.0,meteohub,2013-04-03 07:32:00,
2013-04-02 21:37:00,46.2,42.3,30.16,East,101,2.0,5.0,86,0.00,,,0.00,0.0,meteohub,2013-04-03 07:37:00,
2013-04-02 21:38:00,46.0,42.1,30.16,East,97,3.0,5.0,86,0.00,,,0.00,0.0,meteohub,2013-04-03 07:38:00,
2013-04-02 21:47:00,46.0,43.0,30.16,East,94,2.0,5.0,89,0.00,,,0.00,0.0,meteohub,2013-04-03 07:47:00,
2013-04-02 21:52:00,46.4,42.8,30.15,ESE,115,1.0,5.0,87,0.00,,,0.00,0.0,meteohub,2013-04-03 07:52:00,
2013-04-02 21:57:00,46.6,43.2,30.16,East,98,3.0,5.0,88,0.00,,,0.00,0.0,meteohub,2013-04-03 07:57:00,
2013-04-02 22:00:00,46.9,43.5,30.16,ESE,111,3.0,5.0,88,0.00,,,0.00,0.0,meteohub,2013-04-03 08:00:00,
2013-04-02 22:02:00,47.1,43.7,30.16,East,101,2.0,5.0,88,0.00,,,0.00,0.0,meteohub,2013-04-03 08:02:00,
2013-04-02 22:15:00,47.8,43.5,30.16,East,91,2.0,6.0,85,0.00,,,0.00,0.0,meteohub,2013-04-03 08:15:00,
2013-04-02 22:20:00,47.7,43.7,30.16,ESE,122,1.0,5.0,86,0.00,,,0.00,0.0,meteohub,2013-04-03 08:20:00,
2013-04-02 22:27:00,47.3,43.0,30.16,East,80,2.0,5.0,85,0.00,,,0.00,0.0,meteohub,2013-04-03 08:27:00,
2013-04-02 22:36:00,46.6,42.1,30.16,East,81,2.0,5.0,84,0.00,,,0.00,0.0,meteohub,2013-04-03 08:36:00,
2013-04-02 22:41:00,46.4,42.1,30.16,ESE,121,2.0,6.0,85,0.00,,,0.00,0.0,meteohub,2013-04-03 08:41:00,
2013-04-02 22:44:00,46.8,42.4,30.16,East,79,2.0,6.0,85,0.00,,,0.00,0.0,meteohub,2013-04-03 08:44:00,
2013-04-02 22:47:00,46.8,42.3,30.16,East,98,3.0,6.0,84,0.00,,,0.00,0.0,meteohub,2013-04-03 08:47:00,
2013-04-02 22:57:00,47.1,41.9,30.16,East,83,3.0,6.0,82,0.00,,,0.00,0.0,meteohub,2013-04-03 08:57:00,
2013-04-02 23:02:00,47.1,41.9,30.16,ESE,107,3.0,6.0,82,0.00,,,0.00,0.0,meteohub,2013-04-03 09:02:00,
2013-04-02 23:07:00,47.1,41.5,30.16,ESE,109,1.0,6.0,81,0.00,,,0.00,0.0,meteohub,2013-04-03 09:07:00,
2013-04-02 23:08:00,47.1,41.5,30.16,ENE,77,3.0,6.0,81,0.00,,,0.00,0.0,meteohub,2013-04-03 09:08:00,
2013-04-02 23:12:00,47.1,41.5,30.16,ENE,74,3.0,6.0,81,0.00,,,0.00,0.0,meteohub,2013-04-03 09:12:00,
2013-04-02 23:22:00,46.9,40.5,30.15,East,80,5.0,6.0,78,0.00,,,0.00,0.0,meteohub,2013-04-03 09:22:00,
2013-04-02 23:27:00,47.1,39.9,30.15,East,91,3.0,7.0,76,0.00,,,0.00,0.0,meteohub,2013-04-03 09:27:00,
2013-04-02 23:32:00,46.9,40.1,30.15,ENE,59,3.0,7.0,77,0.00,,,0.00,0.0,meteohub,2013-04-03 09:32:00,
2013-04-02 23:37:00,46.2,39.4,30.15,East,90,1.0,7.0,77,0.00,,,0.00,0.0,meteohub,2013-04-03 09:37:00,
2013-04-02 23:42:00,45.9,39.7,30.15,East,96,3.0,5.0,79,0.00,,,0.00,0.0,meteohub,2013-04-03 09:42:00,
2013-04-02 23:47:00,45.5,39.7,30.15,East,79,5.0,5.0,80,0.00,,,0.00,0.0,meteohub,2013-04-03 09:47:00,
2013-04-02 23:52:00,45.1,39.4,30.15,East,97,2.0,5.0,80,0.00,,,0.00,0.0,meteohub,2013-04-03 09:52:00,
2013-04-02 23:58:00,45.0,39.2,30.15,East,84,2.0,5.0,80,0.00,,,0.00,0.0,meteohub,2013-04-03 09:58:00,